Time;durP1;ratioP1;P1;durP2;ratioP2;P2;SDS_P1;SDS_P2;PMS_P1;PMS_P2;Temp;Humidity;BMP_temperature;BMP_pressure;BME280_temperature;BME280_humidity;BME280_pressure;Samples;Min_cycle;Max_cycle;Signal;HPM_P1;HPM_P2
2021/10/02 00:46:42;;;;;;;11.53;9.37;;;15.30;99.90;;;;;;5095177;28;20214;-85
2021/10/02 00:49:09;;;;;;;11.30;8.43;;;15.10;99.90;;;;;;5076477;28;20172;-83
2021/10/02 00:51:38;;;;;;;11.20;8.70;;;14.90;99.90;;;;;;5076316;28;20167;-85
2021/10/02 00:54:04;;;;;;;12.47;8.80;;;15.00;99.90;;;;;;5076234;28;20181;-85
2021/10/02 00:56:30;;;;;;;10.53;8.97;;;15.10;99.90;;;;;;5094856;28;20660;-85
2021/10/02 00:58:56;;;;;;;13.10;9.53;;;14.90;99.90;;;;;;5076468;28;20206;-84
2021/10/02 01:01:30;;;;;;;13.97;9.27;;;14.90;99.90;;;;;;5076426;28;20164;-85
2021/10/02 01:04:13;;;;;;;12.17;9.20;;;14.90;99.90;;;;;;5076414;28;20739;-87
2021/10/02 01:06:59;;;;;;;10.97;9.03;;;14.80;99.90;;;;;;5085533;28;20174;-84
2021/10/02 01:10:07;;;;;;;11.90;8.77;;;14.80;99.90;;;;;;5105778;28;20172;-84
2021/10/02 01:12:47;;;;;;;12.23;8.80;;;14.80;99.90;;;;;;5079920;28;20171;-85
2021/10/02 01:15:21;;;;;;;15.07;8.87;;;14.90;99.90;;;;;;5076223;28;20178;-85
2021/10/02 01:17:55;;;;;;;12.67;8.37;;;14.80;99.90;;;;;;5095184;28;20167;-84
2021/10/02 01:20:33;;;;;;;15.37;9.83;;;14.90;99.90;;;;;;5076041;28;20176;-84
2021/10/02 01:23:26;;;;;;;15.10;9.13;;;14.90;99.90;;;;;;5094960;28;20216;-84
2021/10/02 01:26:19;;;;;;;9.47;8.20;;;15.10;99.90;;;;;;5112059;28;20171;-83
2021/10/02 01:28:52;;;;;;;13.23;8.47;;;15.10;99.90;;;;;;5108497;28;20207;-84
2021/10/02 01:37:12;;;;;;;15.03;9.20;;;15.00;99.90;;;;;;5117021;28;20167;-84
2021/10/02 01:47:52;;;;;;;10.60;7.80;;;14.90;99.90;;;;;;5102024;28;20230;-84
2021/10/02 01:50:23;;;;;;;10.43;7.23;;;14.90;99.90;;;;;;5100518;28;20161;-85
2021/10/02 01:52:50;;;;;;;15.53;8.00;;;15.10;99.90;;;;;;5077106;28;20181;-84
2021/10/02 01:55:17;;;;;;;13.73;7.00;;;15.20;99.90;;;;;;5076757;28;20200;-83
2021/10/02 01:57:46;;;;;;;9.60;7.13;;;15.10;99.90;;;;;;5093543;28;20180;-85
2021/10/02 02:00:13;;;;;;;11.50;6.90;;;15.10;99.90;;;;;;5075417;28;20195;-85
2021/10/02 02:02:44;;;;;;;9.87;6.80;;;14.90;99.90;;;;;;5093118;28;20686;-86
2021/10/02 02:05:10;;;;;;;10.40;6.70;;;14.80;99.90;;;;;;5093325;28;20163;-85
2021/10/02 02:07:38;;;;;;;9.60;6.80;;;14.80;99.90;;;;;;5079470;28;20171;-83
2021/10/02 02:10:06;;;;;;;12.27;7.43;;;14.60;99.90;;;;;;5097645;28;20175;-84
2021/10/02 02:12:33;;;;;;;11.20;6.80;;;14.50;99.90;;;;;;5081015;28;20178;-83
2021/10/02 02:15:06;;;;;;;12.43;7.57;;;14.50;99.90;;;;;;5113287;28;20171;-83
2021/10/02 02:17:36;;;;;;;11.33;7.13;;;14.50;99.90;;;;;;5078874;28;20574;-84
2021/10/02 02:20:03;;;;;;;11.90;8.03;;;14.50;99.90;;;;;;5078921;28;20214;-84
2021/10/02 02:22:29;;;;;;;9.97;7.37;;;14.50;99.90;;;;;;5078985;28;20195;-84
2021/10/02 02:24:56;;;;;;;10.63;7.93;;;14.50;99.90;;;;;;5096891;28;20170;-84
2021/10/02 02:27:22;;;;;;;13.87;7.50;;;14.50;99.90;;;;;;5097381;28;20159;-84
2021/10/02 02:29:48;;;;;;;14.23;7.03;;;14.40;99.90;;;;;;5079241;28;20246;-84
2021/10/02 02:32:16;;;;;;;9.90;6.60;;;14.40;99.90;;;;;;5081302;28;20172;-84
2021/10/02 02:34:42;;;;;;;10.93;7.67;;;14.40;99.90;;;;;;5098569;28;20177;-85
2021/10/02 02:37:07;;;;;;;11.33;6.97;;;14.50;99.90;;;;;;5097328;28;20163;-84
2021/10/02 02:39:33;;;;;;;11.47;6.83;;;14.40;99.90;;;;;;5079879;28;20172;-85
2021/10/02 02:41:59;;;;;;;11.03;7.10;;;14.40;99.90;;;;;;5081751;28;20201;-84
2021/10/02 02:44:25;;;;;;;9.67;7.20;;;14.50;99.90;;;;;;5081084;28;20187;-84
2021/10/02 02:47:15;;;;;;;10.10;7.17;;;14.50;99.90;;;;;;5078281;28;20176;-84
2021/10/02 02:50:04;;;;;;;15.33;7.77;;;14.40;99.90;;;;;;5078280;28;20179;-84
2021/10/02 02:52:52;;;;;;;9.83;6.93;;;14.30;99.90;;;;;;5096604;28;20165;-84
2021/10/02 02:55:25;;;;;;;10.47;7.27;;;14.30;99.90;;;;;;5096498;28;20175;-84
2021/10/02 02:57:56;;;;;;;10.37;7.63;;;14.30;99.90;;;;;;5096648;28;20172;-84
2021/10/02 03:00:24;;;;;;;11.07;7.47;;;14.30;99.90;;;;;;5078153;28;20202;-84
2021/10/02 03:02:57;;;;;;;13.97;7.67;;;14.30;99.90;;;;;;5078276;28;20587;-84
2021/10/02 03:05:26;;;;;;;10.70;7.63;;;14.30;99.90;;;;;;5078164;28;20181;-84
2021/10/02 03:08:15;;;;;;;13.90;7.90;;;14.40;99.90;;;;;;5096699;28;20519;-84
2021/10/02 03:10:47;;;;;;;11.63;7.60;;;14.20;99.90;;;;;;5078800;28;20209;-84
2021/10/02 03:13:16;;;;;;;12.73;7.70;;;14.40;99.90;;;;;;5078526;28;20179;-83
2021/10/02 03:15:43;;;;;;;9.57;7.50;;;14.30;99.90;;;;;;5077869;28;20175;-84
2021/10/02 03:18:13;;;;;;;10.87;8.17;;;14.30;99.90;;;;;;5077074;28;20190;-84
2021/10/02 03:20:40;;;;;;;11.63;8.00;;;14.30;99.90;;;;;;5078193;28;20204;-84
2021/10/02 03:23:07;;;;;;;15.70;7.80;;;14.40;99.90;;;;;;5096276;28;20204;-84
2021/10/02 03:25:34;;;;;;;12.20;8.00;;;14.20;99.90;;;;;;5078327;28;20334;-83
2021/10/02 03:28:02;;;;;;;12.60;7.97;;;14.20;99.90;;;;;;5077990;28;20187;-83
2021/10/02 03:30:30;;;;;;;12.60;8.57;;;14.20;99.90;;;;;;5078047;28;20171;-83
2021/10/02 03:32:56;;;;;;;15.03;8.87;;;14.30;99.90;;;;;;5096261;28;20261;-85
2021/10/02 03:35:24;;;;;;;11.63;8.60;;;14.40;99.90;;;;;;5077990;28;20211;-84
2021/10/02 03:37:50;;;;;;;13.80;9.10;;;14.40;99.90;;;;;;5077974;28;20479;-84
2021/10/02 03:40:18;;;;;;;15.77;8.93;;;14.60;99.90;;;;;;5096259;28;20163;-84
2021/10/02 03:42:45;;;;;;;11.70;8.57;;;14.40;99.90;;;;;;5077494;28;20241;-85
2021/10/02 03:45:12;;;;;;;13.00;9.10;;;14.50;99.90;;;;;;5101322;28;20167;-85
2021/10/02 03:47:38;;;;;;;12.37;9.07;;;14.40;99.90;;;;;;5077587;28;20631;-85
2021/10/02 03:50:05;;;;;;;12.03;8.90;;;14.30;99.90;;;;;;5096082;28;20167;-84
2021/10/02 03:52:31;;;;;;;13.53;9.40;;;14.30;99.90;;;;;;5078889;28;20178;-84
2021/10/02 03:54:57;;;;;;;11.77;8.90;;;14.40;99.90;;;;;;5101124;28;20171;-84
2021/10/02 03:57:22;;;;;;;11.80;8.73;;;14.20;99.90;;;;;;5082821;28;20171;-84
2021/10/02 03:59:48;;;;;;;12.03;9.07;;;14.20;99.90;;;;;;5099009;28;20693;-85
2021/10/02 04:02:14;;;;;;;12.13;9.03;;;14.20;99.90;;;;;;5097995;28;20199;-85
2021/10/02 04:04:39;;;;;;;13.17;9.27;;;14.10;99.90;;;;;;5096318;28;20175;-85
2021/10/02 04:07:05;;;;;;;12.40;9.10;;;14.20;99.90;;;;;;5077700;28;20194;-85
2021/10/02 04:09:31;;;;;;;15.00;9.90;;;14.20;99.90;;;;;;5096400;28;20533;-84
2021/10/02 04:11:57;;;;;;;13.40;8.70;;;14.20;99.90;;;;;;5076910;28;20182;-86
2021/10/02 04:14:23;;;;;;;13.93;9.27;;;14.10;99.90;;;;;;5095129;28;20500;-85
2021/10/02 04:16:48;;;;;;;10.57;8.60;;;14.10;99.90;;;;;;5077208;28;20182;-85
2021/10/02 04:19:14;;;;;;;13.00;10.10;;;14.20;99.90;;;;;;5077542;28;20184;-84
2021/10/02 04:21:40;;;;;;;12.17;8.93;;;14.20;99.90;;;;;;5077150;28;20191;-83
2021/10/02 04:24:06;;;;;;;15.33;10.23;;;14.20;99.90;;;;;;5095156;28;20260;-85
2021/10/02 04:26:31;;;;;;;13.70;9.23;;;14.20;99.90;;;;;;5077048;28;20198;-84
2021/10/02 04:28:57;;;;;;;14.87;9.47;;;14.20;99.90;;;;;;5096413;28;20192;-84
2021/10/02 04:31:23;;;;;;;16.93;10.67;;;14.10;99.90;;;;;;5104772;28;20176;-82
2021/10/02 04:33:49;;;;;;;15.47;10.33;;;14.00;99.90;;;;;;5086544;28;20175;-81
2021/10/02 04:36:14;;;;;;;13.53;9.93;;;14.00;99.90;;;;;;5094466;28;20242;-83
2021/10/02 04:38:41;;;;;;;14.97;9.90;;;14.20;99.90;;;;;;5101864;28;20238;-82
2021/10/02 04:41:08;;;;;;;14.00;9.67;;;14.20;99.90;;;;;;5090506;28;20194;-84
2021/10/02 04:43:41;;;;;;;12.57;10.00;;;14.20;99.90;;;;;;5094867;28;20294;-84
2021/10/02 04:46:08;;;;;;;14.43;10.47;;;14.10;99.90;;;;;;5076686;28;20536;-83
2021/10/02 04:48:34;;;;;;;13.30;10.10;;;14.10;99.90;;;;;;5076357;28;20176;-84
2021/10/02 04:51:00;;;;;;;12.63;11.23;;;14.10;99.90;;;;;;5076639;28;20659;-85
2021/10/02 04:53:25;;;;;;;14.53;10.97;;;14.10;99.90;;;;;;5089917;28;20162;-81
2021/10/02 04:55:54;;;;;;;12.20;10.43;;;14.20;99.90;;;;;;5099281;28;20186;-86
2021/10/02 04:58:23;;;;;;;16.63;11.53;;;14.20;99.90;;;;;;5076320;28;20631;-86
2021/10/02 05:00:49;;;;;;;17.70;11.27;;;14.20;99.90;;;;;;5076337;28;20171;-85
2021/10/02 05:03:15;;;;;;;17.70;11.37;;;14.30;99.90;;;;;;5094282;28;20264;-84
2021/10/02 05:05:41;;;;;;;16.10;11.87;;;14.30;99.90;;;;;;5094834;28;20552;-83
2021/10/02 05:08:06;;;;;;;18.27;11.57;;;14.50;99.90;;;;;;5076214;28;20185;-84
2021/10/02 05:10:32;;;;;;;16.67;12.03;;;14.40;99.90;;;;;;5094687;28;20166;-83
2021/10/02 05:12:57;;;;;;;15.70;11.50;;;14.40;99.90;;;;;;5080356;28;20196;-84
2021/10/02 05:15:24;;;;;;;16.77;11.87;;;14.30;99.90;;;;;;5094449;28;20218;-84
2021/10/02 05:17:50;;;;;;;18.20;11.53;;;14.40;99.90;;;;;;5076018;28;20203;-87
2021/10/02 05:20:16;;;;;;;14.23;12.07;;;14.30;99.90;;;;;;5075807;28;20195;-84
2021/10/02 05:22:41;;;;;;;16.03;11.93;;;14.30;99.90;;;;;;5075682;28;20641;-84
2021/10/02 05:25:07;;;;;;;18.73;12.13;;;14.40;99.90;;;;;;5093773;28;20623;-84
2021/10/02 05:27:33;;;;;;;13.93;12.00;;;14.40;99.90;;;;;;5075811;28;20175;-83
2021/10/02 05:29:59;;;;;;;19.67;12.33;;;14.40;99.90;;;;;;5093639;28;20192;-84
2021/10/02 05:32:25;;;;;;;13.90;12.33;;;14.40;99.90;;;;;;5075731;28;20520;-84
2021/10/02 05:34:51;;;;;;;16.57;11.27;;;14.50;99.90;;;;;;5075168;28;20557;-84
2021/10/02 05:37:17;;;;;;;14.83;11.90;;;14.40;99.90;;;;;;5093682;28;20627;-84
2021/10/02 05:39:42;;;;;;;16.30;11.47;;;14.50;99.90;;;;;;5074768;28;20301;-85
2021/10/02 05:42:08;;;;;;;19.33;11.23;;;14.70;99.90;;;;;;5074783;28;20257;-84
2021/10/02 05:44:34;;;;;;;18.40;11.57;;;14.50;99.90;;;;;;5075170;28;20278;-84
2021/10/02 05:47:01;;;;;;;18.67;11.23;;;14.60;99.90;;;;;;5075486;28;20171;-83
2021/10/02 05:49:26;;;;;;;17.80;11.17;;;14.60;99.90;;;;;;5075337;28;20179;-85
2021/10/02 05:51:52;;;;;;;13.93;11.27;;;14.60;99.90;;;;;;5075222;28;20639;-83
2021/10/02 05:54:21;;;;;;;15.37;10.27;;;14.60;99.90;;;;;;5074823;28;20536;-83
2021/10/02 05:56:47;;;;;;;14.30;10.67;;;14.60;99.90;;;;;;5093855;28;20630;-85
2021/10/02 05:59:13;;;;;;;16.47;9.77;;;14.50;99.90;;;;;;5094866;28;20261;-83
2021/10/02 06:01:38;;;;;;;12.50;9.10;;;14.40;99.90;;;;;;5094141;28;20199;-85
2021/10/02 06:04:04;;;;;;;13.83;9.83;;;14.40;99.90;;;;;;5075201;28;20212;-85
2021/10/02 06:06:30;;;;;;;14.97;9.93;;;14.30;99.90;;;;;;5095534;28;20261;-83
2021/10/02 06:08:55;;;;;;;12.97;10.00;;;14.30;99.90;;;;;;5102483;28;20174;-84
2021/10/02 06:11:21;;;;;;;13.03;8.77;;;14.20;99.90;;;;;;5080422;28;20590;-84
2021/10/02 06:13:47;;;;;;;13.30;9.60;;;14.20;99.90;;;;;;5078269;28;20171;-83
2021/10/02 06:16:17;;;;;;;14.00;9.10;;;14.30;99.90;;;;;;5077741;28;20180;-83
2021/10/02 06:18:43;;;;;;;13.80;9.97;;;14.30;99.90;;;;;;5080229;28;20167;-84
2021/10/02 06:21:11;;;;;;;12.13;9.90;;;14.20;99.90;;;;;;5097156;28;20169;-84
2021/10/02 06:23:42;;;;;;;14.17;10.47;;;14.10;99.90;;;;;;5092965;28;20294;-84
2021/10/02 06:26:07;;;;;;;17.10;11.23;;;14.10;99.90;;;;;;5093178;28;20168;-84
2021/10/02 06:28:33;;;;;;;15.20;11.57;;;14.10;99.90;;;;;;5075206;28;20198;-83
2021/10/02 06:30:59;;;;;;;15.87;11.17;;;14.20;99.90;;;;;;5075483;28;20165;-85
2021/10/02 06:33:27;;;;;;;15.10;10.10;;;14.10;99.90;;;;;;5076766;28;20164;-84
2021/10/02 06:35:53;;;;;;;14.80;11.40;;;14.10;99.90;;;;;;5076088;28;20254;-83
2021/10/02 06:38:18;;;;;;;17.37;11.37;;;14.20;99.90;;;;;;5075882;28;20629;-86
2021/10/02 06:40:44;;;;;;;14.60;10.90;;;14.10;99.90;;;;;;5093330;28;20179;-85
2021/10/02 06:43:13;;;;;;;14.67;11.77;;;14.20;99.90;;;;;;5076350;28;20286;-84
2021/10/02 06:45:39;;;;;;;16.23;14.53;;;14.20;99.90;;;;;;5076001;28;20561;-83
2021/10/02 06:48:06;;;;;;;20.07;15.50;;;14.30;99.90;;;;;;5104768;28;20155;-83
2021/10/02 06:50:33;;;;;;;19.83;13.37;;;14.40;99.90;;;;;;5102890;28;20174;-83
2021/10/02 06:52:59;;;;;;;16.70;13.33;;;14.40;99.90;;;;;;5082068;28;20181;-83
2021/10/02 06:55:25;;;;;;;14.97;12.53;;;14.50;99.90;;;;;;5082089;28;20170;-85
2021/10/02 06:57:51;;;;;;;18.30;12.80;;;14.40;99.90;;;;;;5079447;28;20179;-85
2021/10/02 07:00:17;;;;;;;19.27;10.90;;;14.40;99.90;;;;;;5079495;28;20262;-83
2021/10/02 07:02:44;;;;;;;17.27;11.20;;;14.40;99.90;;;;;;5081381;28;20241;-83
2021/10/02 07:05:14;;;;;;;13.77;10.40;;;14.40;99.90;;;;;;5089228;28;20164;-84
2021/10/02 07:07:40;;;;;;;15.13;10.77;;;14.50;99.90;;;;;;5105221;28;20255;-83
2021/10/02 07:10:10;;;;;;;16.07;10.50;;;14.50;99.90;;;;;;5079537;28;20183;-83
2021/10/02 07:12:37;;;;;;;15.03;9.83;;;14.60;99.90;;;;;;5079249;28;20191;-83
2021/10/02 07:15:05;;;;;;;15.37;9.87;;;14.70;99.90;;;;;;5081559;28;20176;-82
2021/10/02 07:17:31;;;;;;;14.03;8.70;;;14.70;99.90;;;;;;5096594;28;20171;-83
2021/10/02 07:19:57;;;;;;;11.33;8.03;;;14.70;99.90;;;;;;5095484;28;20199;-82
2021/10/02 07:22:23;;;;;;;12.90;8.50;;;14.80;99.90;;;;;;5120260;28;20246;-82
2021/10/02 07:24:48;;;;;;;13.13;8.43;;;15.00;99.90;;;;;;5089801;28;20205;-84
2021/10/02 07:27:14;;;;;;;11.07;7.63;;;15.20;99.90;;;;;;5080337;28;20174;-85
2021/10/02 07:29:41;;;;;;;13.67;7.50;;;15.00;99.90;;;;;;5096475;28;20189;-83
2021/10/02 07:32:08;;;;;;;12.70;7.50;;;15.00;99.90;;;;;;5078483;28;20171;-85
2021/10/02 07:34:37;;;;;;;11.27;6.67;;;15.00;99.90;;;;;;5077991;28;20225;-85
2021/10/02 07:37:04;;;;;;;11.80;7.47;;;14.90;99.90;;;;;;5077778;28;20210;-85
2021/10/02 07:39:29;;;;;;;10.90;6.40;;;15.00;99.90;;;;;;5078033;28;20237;-84
2021/10/02 07:41:57;;;;;;;15.17;7.33;;;15.00;99.90;;;;;;5095751;28;20568;-84
2021/10/02 07:44:25;;;;;;;10.60;6.87;;;15.10;99.90;;;;;;5078252;28;20190;-84
2021/10/02 07:46:53;;;;;;;10.10;6.13;;;15.30;99.90;;;;;;5061600;28;20173;-84
2021/10/02 07:49:22;;;;;;;11.17;6.87;;;15.30;99.90;;;;;;5097040;28;20167;-84
2021/10/02 07:51:50;;;;;;;11.90;6.80;;;15.40;99.90;;;;;;5078617;28;20171;-84
2021/10/02 07:54:20;;;;;;;12.73;5.77;;;15.40;99.90;;;;;;5077727;28;20670;-83
2021/10/02 07:56:46;;;;;;;10.87;5.57;;;15.50;99.90;;;;;;5096426;28;20208;-85
2021/10/02 07:59:13;;;;;;;10.57;5.90;;;15.50;99.90;;;;;;5078755;28;20542;-84
2021/10/02 08:01:38;;;;;;;9.70;5.10;;;15.60;99.90;;;;;;5078230;28;20171;-84
2021/10/02 08:04:07;;;;;;;8.00;4.70;;;15.60;99.90;;;;;;5077276;28;20203;-84
2021/10/02 08:06:35;;;;;;;11.93;5.27;;;15.60;99.90;;;;;;5078698;28;20175;-85
2021/10/02 08:09:02;;;;;;;9.43;5.07;;;15.60;99.90;;;;;;5078104;28;20211;-85
2021/10/02 08:11:28;;;;;;;9.10;4.67;;;15.70;99.90;;;;;;5078441;28;20167;-84
2021/10/02 08:13:55;;;;;;;9.67;4.37;;;15.60;99.90;;;;;;5079246;28;20179;-85
2021/10/02 08:16:30;;;;;;;9.20;4.33;;;15.50;99.90;;;;;;5078465;28;20175;-84
2021/10/02 08:18:58;;;;;;;8.67;4.40;;;15.70;99.90;;;;;;5079926;28;20178;-84
2021/10/02 08:21:25;;;;;;;11.27;4.43;;;15.70;99.90;;;;;;5078157;28;20172;-82
2021/10/02 08:23:52;;;;;;;9.00;4.17;;;15.70;99.90;;;;;;5077111;28;20237;-84
2021/10/02 08:26:19;;;;;;;10.87;4.37;;;15.70;99.90;;;;;;5077579;28;20177;-84
2021/10/02 08:28:50;;;;;;;7.97;3.87;;;15.60;99.90;;;;;;5078349;28;20259;-85
2021/10/02 08:31:20;;;;;;;9.13;4.20;;;15.70;99.90;;;;;;5096610;28;20168;-85
2021/10/02 08:33:47;;;;;;;11.43;4.17;;;15.70;99.90;;;;;;5100129;28;20646;-84
2021/10/02 08:36:13;;;;;;;8.97;3.60;;;15.80;99.90;;;;;;5101908;28;20170;-82
2021/10/02 08:38:42;;;;;;;12.50;4.07;;;16.00;99.30;;;;;;5087935;28;20229;-83
2021/10/02 08:41:11;;;;;;;7.57;3.40;;;16.00;98.90;;;;;;5092221;28;20190;-84
2021/10/02 08:43:38;;;;;;;6.63;3.33;;;16.00;99.10;;;;;;5100010;28;20249;-84
2021/10/02 08:46:10;;;;;;;9.60;3.80;;;15.90;99.50;;;;;;5104619;28;20159;-83
2021/10/02 08:48:36;;;;;;;8.73;4.80;;;16.00;99.90;;;;;;5077609;28;20175;-84
2021/10/02 08:51:03;;;;;;;9.63;4.20;;;16.10;99.90;;;;;;5095486;28;20167;-82
2021/10/02 08:53:30;;;;;;;12.13;4.43;;;16.00;99.60;;;;;;5077488;28;20206;-83
2021/10/02 08:55:58;;;;;;;8.77;3.80;;;16.20;99.30;;;;;;5078910;28;20184;-84
2021/10/02 08:58:24;;;;;;;10.30;3.90;;;16.20;99.00;;;;;;5077675;28;20167;-84
2021/10/02 09:00:51;;;;;;;10.03;3.80;;;16.20;98.80;;;;;;5077265;28;20206;-86
2021/10/02 09:03:19;;;;;;;7.50;3.77;;;16.10;99.20;;;;;;5076827;28;20206;-83
2021/10/02 09:05:44;;;;;;;5.67;3.77;;;16.20;99.20;;;;;;5094658;28;20638;-84
2021/10/02 09:08:10;;;;;;;8.50;3.60;;;16.20;98.60;;;;;;5103279;28;20225;-85
2021/10/02 09:10:37;;;;;;;8.00;3.60;;;16.10;98.80;;;;;;5081466;28;20167;-85
2021/10/02 09:13:03;;;;;;;10.47;4.20;;;16.10;99.10;;;;;;5080772;28;20180;-86
2021/10/02 09:15:29;;;;;;;10.10;3.63;;;16.00;99.10;;;;;;5078033;28;20178;-83
2021/10/02 09:17:56;;;;;;;12.30;4.33;;;16.10;99.10;;;;;;5099677;28;20174;-85
2021/10/02 09:20:26;;;;;;;9.83;3.77;;;16.00;99.40;;;;;;5097927;28;20258;-84
2021/10/02 09:23:00;;;;;;;7.47;3.53;;;16.00;99.60;;;;;;5062196;28;20207;-85
2021/10/02 09:25:30;;;;;;;5.77;2.97;;;16.20;99.10;;;;;;5107154;28;20167;-86
2021/10/02 09:28:12;;;;;;;9.00;3.50;;;16.40;98.30;;;;;;5100610;28;20185;-83
2021/10/02 09:30:43;;;;;;;10.90;3.87;;;16.50;98.00;;;;;;5077883;28;20694;-86
2021/10/02 09:33:08;;;;;;;10.67;3.67;;;16.60;97.70;;;;;;5076582;28;20213;-86
2021/10/02 09:35:37;;;;;;;9.07;2.80;;;16.70;97.00;;;;;;5076642;28;20167;-86
2021/10/02 09:38:03;;;;;;;4.60;2.80;;;16.70;96.30;;;;;;5076863;28;20221;-86
2021/10/02 09:40:30;;;;;;;7.83;2.70;;;16.80;96.30;;;;;;5076759;28;20167;-84
2021/10/02 09:43:02;;;;;;;6.27;2.43;;;16.70;96.50;;;;;;5076838;28;20218;-83
2021/10/02 09:45:36;;;;;;;7.80;2.80;;;16.70;96.60;;;;;;5078701;28;20255;-81
2021/10/02 09:48:05;;;;;;;8.20;2.73;;;16.90;96.20;;;;;;5078755;28;20179;-82
2021/10/02 09:51:08;;;;;;;8.87;2.83;;;16.60;96.20;;;;;;5076379;28;20175;-82
2021/10/02 09:53:40;;;;;;;6.90;2.77;;;16.60;95.70;;;;;;5067029;28;20265;-82
2021/10/02 09:56:08;;;;;;;9.43;3.13;;;16.60;96.20;;;;;;5076662;28;20175;-81
2021/10/02 09:58:35;;;;;;;6.03;2.53;;;16.50;96.30;;;;;;5077021;28;20225;-82
2021/10/02 10:01:05;;;;;;;7.33;2.40;;;16.50;96.80;;;;;;5094388;28;20643;-81
2021/10/02 10:03:46;;;;;;;7.90;2.90;;;16.60;96.90;;;;;;5076114;28;20218;-82
2021/10/02 10:06:27;;;;;;;4.83;2.27;;;16.70;96.40;;;;;;5094356;28;20179;-84
2021/10/02 10:09:07;;;;;;;5.90;2.40;;;16.70;95.70;;;;;;5095338;28;20172;-82
2021/10/02 10:11:47;;;;;;;7.10;2.23;;;16.70;94.70;;;;;;5076991;28;20241;-83
2021/10/02 10:14:23;;;;;;;4.43;1.90;;;16.70;94.50;;;;;;5096400;28;20175;-83
2021/10/02 10:16:51;;;;;;;4.27;1.83;;;16.70;94.60;;;;;;5095080;28;20530;-81
2021/10/02 10:19:21;;;;;;;6.27;2.93;;;16.70;94.20;;;;;;5078194;28;20221;-82
2021/10/02 10:22:08;;;;;;;7.33;2.10;;;16.70;94.30;;;;;;5098968;28;20214;-83
2021/10/02 10:24:36;;;;;;;6.20;2.10;;;16.70;94.50;;;;;;5084401;28;20196;-80
2021/10/02 10:27:01;;;;;;;4.90;2.03;;;16.70;94.10;;;;;;5091808;28;20167;-83
2021/10/02 10:29:41;;;;;;;3.63;2.07;;;16.80;93.60;;;;;;5084485;28;20268;-84
2021/10/02 10:32:17;;;;;;;6.00;2.23;;;16.90;93.50;;;;;;5099743;28;20527;-87
2021/10/02 10:34:43;;;;;;;4.23;1.97;;;17.00;92.80;;;;;;5098427;28;20167;-86
2021/10/02 10:37:12;;;;;;;4.30;2.47;;;17.00;92.00;;;;;;5098398;28;20164;-86
2021/10/02 10:39:42;;;;;;;6.83;1.70;;;17.00;90.80;;;;;;5080375;28;20171;-85
2021/10/02 10:42:08;;;;;;;5.47;1.97;;;17.00;90.20;;;;;;5099528;28;20176;-85
2021/10/02 10:44:35;;;;;;;5.90;2.00;;;17.10;91.00;;;;;;5098266;28;20174;-85
2021/10/02 10:47:02;;;;;;;6.40;1.93;;;17.20;90.90;;;;;;5082087;28;20191;-84
2021/10/02 10:49:28;;;;;;;5.90;2.20;;;17.20;88.00;;;;;;5100939;28;20641;-86
2021/10/02 10:52:15;;;;;;;6.97;2.07;;;17.20;87.60;;;;;;5080936;28;20232;-86
2021/10/02 10:55:01;;;;;;;4.20;1.73;;;17.20;88.80;;;;;;5080588;28;20167;-86
2021/10/02 10:58:19;;;;;;;;;;;;;;;;;;;;;
2021/10/02 11:00:43;;;;;;;4.03;1.80;;;17.50;86.20;;;;;;5091519;28;20187;-86
2021/10/02 11:03:10;;;;;;;7.30;2.00;;;17.50;85.00;;;;;;5080295;28;20242;-85
2021/10/02 11:05:36;;;;;;;4.93;1.90;;;17.50;86.20;;;;;;5080341;28;20167;-85
2021/10/02 11:08:16;;;;;;;9.27;2.67;;;17.40;86.60;;;;;;5102124;28;20551;-86
2021/10/02 11:10:42;;;;;;;6.57;2.27;;;17.40;87.60;;;;;;5102675;28;20658;-86
2021/10/02 11:13:35;;;;;;;5.90;2.00;;;17.40;88.60;;;;;;5088892;28;20183;-85
2021/10/02 11:16:40;;;;;;;6.53;2.20;;;17.30;88.80;;;;;;5096156;28;20197;-84
2021/10/02 11:19:41;;;;;;;3.90;1.60;;;17.30;88.50;;;;;;5096284;28;20176;-85
2021/10/02 11:23:05;;;;;;;5.80;1.93;;;17.20;88.20;;;;;;5096298;28;20217;-84
2021/10/02 11:25:32;;;;;;;3.73;1.80;;;17.20;86.80;;;;;;5089662;28;20176;-84
2021/10/02 11:28:55;;;;;;;;;;;;;;;;;;;;;
2021/10/02 11:31:25;;;;;;;5.60;2.40;;;17.30;85.90;;;;;;5113502;28;20606;-86
2021/10/02 11:34:02;;;;;;;6.10;1.77;;;17.40;84.10;;;;;;5097156;28;20179;-85
2021/10/02 11:36:28;;;;;;;3.90;1.87;;;17.40;83.20;;;;;;5086323;28;20171;-84
2021/10/02 11:39:13;;;;;;;5.70;2.07;;;17.40;82.70;;;;;;5084754;28;20233;-86
2021/10/02 11:41:41;;;;;;;4.43;1.90;;;17.40;84.40;;;;;;5081994;28;20175;-86
2021/10/02 11:44:08;;;;;;;5.80;2.23;;;17.40;82.90;;;;;;5081410;28;20222;-86
2021/10/02 11:46:42;;;;;;;4.77;2.10;;;17.40;82.00;;;;;;5099262;28;20184;-87
2021/10/02 11:49:19;;;;;;;9.17;2.67;;;17.50;78.40;;;;;;5085767;28;20194;-86
2021/10/02 11:52:12;;;;;;;4.50;2.27;;;17.60;76.20;;;;;;5101082;28;20163;-86
2021/10/02 11:54:40;;;;;;;4.90;2.17;;;17.60;71.70;;;;;;5078865;28;20187;-86
2021/10/02 11:57:17;;;;;;;4.23;1.70;;;17.60;69.90;;;;;;5079993;28;20633;-86
2021/10/02 11:59:49;;;;;;;3.80;1.83;;;17.70;70.10;;;;;;5082425;28;20171;-85
2021/10/02 12:02:22;;;;;;;6.60;2.03;;;17.80;62.70;;;;;;5092721;28;20231;-85
2021/10/02 12:04:51;;;;;;;4.30;2.13;;;17.70;59.00;;;;;;5085730;28;20217;-85
2021/10/02 12:07:17;;;;;;;5.47;2.27;;;17.70;59.90;;;;;;5086621;28;20155;-85
2021/10/02 12:09:55;;;;;;;4.33;1.60;;;17.70;59.30;;;;;;5082781;28;20175;-85
2021/10/02 12:12:21;;;;;;;5.50;1.63;;;17.70;59.10;;;;;;5079080;28;20178;-84
2021/10/02 12:14:58;;;;;;;5.57;2.13;;;17.80;59.30;;;;;;5078534;28;20171;-85
2021/10/02 12:17:25;;;;;;;3.97;1.73;;;17.90;59.30;;;;;;5096960;28;20623;-85
2021/10/02 12:19:51;;;;;;;4.80;1.70;;;17.70;59.70;;;;;;5078791;28;20184;-85
2021/10/02 12:22:20;;;;;;;4.77;1.50;;;17.70;58.80;;;;;;5077758;28;20195;-84
2021/10/02 12:24:50;;;;;;;5.70;2.00;;;17.90;57.10;;;;;;5078093;28;20189;-85
2021/10/02 12:27:23;;;;;;;4.60;2.03;;;17.80;54.50;;;;;;5078742;28;20644;-85
2021/10/02 12:29:57;;;;;;;6.87;2.20;;;17.70;49.30;;;;;;5078207;28;20187;-83
2021/10/02 12:39:04;;;;;;;5.40;1.57;;;17.60;51.80;;;;;;5051777;28;20182;-85
2021/10/02 12:41:37;;;;;;;4.03;1.63;;;17.60;53.80;;;;;;5078224;28;20191;-85
2021/10/02 12:44:03;;;;;;;7.37;2.07;;;17.70;53.90;;;;;;5095775;28;20745;-84
2021/10/02 12:46:30;;;;;;;8.93;2.30;;;17.80;53.50;;;;;;5079177;28;20673;-85
2021/10/02 12:48:57;;;;;;;6.43;2.20;;;17.90;52.40;;;;;;5096579;28;20241;-85
2021/10/02 12:51:26;;;;;;;3.87;1.60;;;17.80;52.70;;;;;;5096397;28;20267;-85
2021/10/02 12:54:02;;;;;;;4.70;1.67;;;17.80;53.00;;;;;;5080260;28;20230;-85
2021/10/02 12:56:30;;;;;;;4.93;1.60;;;17.80;53.10;;;;;;5096718;28;20254;-85
2021/10/02 12:59:14;;;;;;;4.93;1.73;;;17.80;52.20;;;;;;5096850;28;20218;-85
2021/10/02 13:01:48;;;;;;;6.23;1.87;;;17.90;53.00;;;;;;5079447;28;20202;-85
2021/10/02 13:04:18;;;;;;;6.63;1.80;;;17.90;52.50;;;;;;5098002;28;20206;-85
2021/10/02 13:06:52;;;;;;;6.80;2.20;;;18.00;51.40;;;;;;5081103;28;20799;-85
2021/10/02 13:09:19;;;;;;;6.33;1.70;;;17.90;52.40;;;;;;5078137;28;20186;-85
2021/10/02 13:12:00;;;;;;;;;;;;;;;;;;;;;
2021/10/02 13:14:36;;;;;;;5.83;2.17;;;18.00;50.80;;;;;;5095173;28;20170;-86
2021/10/02 13:17:23;;;;;;;6.60;1.90;;;18.00;49.60;;;;;;5076409;28;20907;-85
2021/10/02 13:20:06;;;;;;;4.97;2.00;;;18.10;49.60;;;;;;5096275;28;20168;-83
2021/10/02 13:22:49;;;;;;;7.30;1.70;;;18.20;45.60;;;;;;5079055;28;20217;-85
2021/10/02 13:25:28;;;;;;;5.40;1.90;;;18.10;45.20;;;;;;5097463;28;20187;-86
2021/10/02 13:27:57;;;;;;;6.80;1.63;;;17.90;43.60;;;;;;5076843;28;20180;-86
2021/10/02 13:30:31;;;;;;;6.47;2.00;;;18.00;44.70;;;;;;5076686;28;20509;-86
2021/10/02 13:33:02;;;;;;;4.73;1.73;;;18.00;45.00;;;;;;5076944;28;20175;-86
2021/10/02 13:35:31;;;;;;;4.20;1.80;;;17.80;45.60;;;;;;5094892;28;20176;-85
2021/10/02 13:38:00;;;;;;;5.83;2.23;;;17.90;49.20;;;;;;5095245;28;20175;-85
2021/10/02 13:41:22;;;;;;;5.43;1.67;;;18.00;48.50;;;;;;5078575;28;20502;-86
2021/10/02 13:44:37;;;;;;;4.93;1.70;;;17.90;49.00;;;;;;5025635;28;20226;-85
2021/10/02 13:47:05;;;;;;;5.70;1.80;;;18.00;51.90;;;;;;5048919;28;20198;-85
2021/10/02 13:49:31;;;;;;;6.03;2.10;;;18.10;49.30;;;;;;5077592;28;20171;-86
2021/10/02 13:51:58;;;;;;;6.30;2.40;;;18.10;47.50;;;;;;5096631;28;20170;-86
2021/10/02 13:54:28;;;;;;;6.53;3.33;;;17.90;48.00;;;;;;5096116;28;20162;-85
2021/10/02 13:56:58;;;;;;;5.00;2.00;;;17.90;48.20;;;;;;5100722;28;20212;-85
2021/10/02 13:59:37;;;;;;;6.63;2.20;;;17.90;48.50;;;;;;5088256;28;20176;-85
2021/10/02 14:02:04;;;;;;;4.80;1.70;;;17.80;49.10;;;;;;5104611;28;20159;-88
2021/10/02 14:05:20;;;;;;;;;;;;;;;;;;;;;
2021/10/02 14:08:06;;;;;;;4.23;1.73;;;17.80;49.80;;;;;;5096539;28;20194;-85